sensor_id;sensor_type;location;lat;lon;timestamp;temperature;humidity
13035;DHT22;6584;48.022;11.810;2022-08-19T00:01:29;19.40;99.90
13035;DHT22;6584;48.022;11.810;2022-08-19T00:04:00;19.40;99.90
13035;DHT22;6584;48.022;11.810;2022-08-19T00:06:27;19.40;99.90
13035;DHT22;6584;48.022;11.810;2022-08-19T00:08:54;19.40;99.90
13035;DHT22;6584;48.022;11.810;2022-08-19T00:11:20;19.40;99.90
13035;DHT22;6584;48.022;11.810;2022-08-19T00:13:46;19.40;99.90
13035;DHT22;6584;48.022;11.810;2022-08-19T00:16:14;19.40;99.90
13035;DHT22;6584;48.022;11.810;2022-08-19T00:18:40;19.40;99.90
13035;DHT22;6584;48.022;11.810;2022-08-19T00:21:06;19.40;99.90
13035;DHT22;6584;48.022;11.810;2022-08-19T00:23:34;19.40;99.90
13035;DHT22;6584;48.022;11.810;2022-08-19T00:26:03;19.30;99.90
13035;DHT22;6584;48.022;11.810;2022-08-19T00:28:28;19.40;99.90
13035;DHT22;6584;48.022;11.810;2022-08-19T00:30:54;19.40;99.90
13035;DHT22;6584;48.022;11.810;2022-08-19T00:33:19;19.40;99.90
13035;DHT22;6584;48.022;11.810;2022-08-19T00:35:45;19.40;99.90
13035;DHT22;6584;48.022;11.810;2022-08-19T00:38:10;19.40;99.90
13035;DHT22;6584;48.022;11.810;2022-08-19T00:40:36;19.40;99.90
13035;DHT22;6584;48.022;11.810;2022-08-19T00:43:08;19.40;99.90
13035;DHT22;6584;48.022;11.810;2022-08-19T00:45:34;19.40;99.90
13035;DHT22;6584;48.022;11.810;2022-08-19T00:48:01;19.40;99.90
13035;DHT22;6584;48.022;11.810;2022-08-19T00:50:29;19.40;99.90
13035;DHT22;6584;48.022;11.810;2022-08-19T00:52:56;19.40;99.90
13035;DHT22;6584;48.022;11.810;2022-08-19T00:55:24;19.40;99.90
13035;DHT22;6584;48.022;11.810;2022-08-19T00:58:04;19.40;99.90
13035;DHT22;6584;48.022;11.810;2022-08-19T01:00:31;19.40;99.90
13035;DHT22;6584;48.022;11.810;2022-08-19T01:02:57;19.40;99.90
13035;DHT22;6584;48.022;11.810;2022-08-19T01:05:26;19.40;99.90
13035;DHT22;6584;48.022;11.810;2022-08-19T01:07:53;19.30;99.90
13035;DHT22;6584;48.022;11.810;2022-08-19T01:10:21;19.40;99.90
13035;DHT22;6584;48.022;11.810;2022-08-19T01:12:49;19.40;99.90
13035;DHT22;6584;48.022;11.810;2022-08-19T01:15:20;19.40;99.90
13035;DHT22;6584;48.022;11.810;2022-08-19T01:17:46;19.50;99.90
13035;DHT22;6584;48.022;11.810;2022-08-19T01:20:18;19.50;99.90
13035;DHT22;6584;48.022;11.810;2022-08-19T01:22:52;19.40;99.90
13035;DHT22;6584;48.022;11.810;2022-08-19T01:25:20;19.40;99.90
13035;DHT22;6584;48.022;11.810;2022-08-19T01:27:49;19.40;99.90
13035;DHT22;6584;48.022;11.810;2022-08-19T01:30:26;19.40;99.90
13035;DHT22;6584;48.022;11.810;2022-08-19T01:32:53;19.40;99.90
13035;DHT22;6584;48.022;11.810;2022-08-19T01:35:20;19.50;99.90
13035;DHT22;6584;48.022;11.810;2022-08-19T01:37:56;19.50;99.90
13035;DHT22;6584;48.022;11.810;2022-08-19T01:40:24;19.50;99.90
13035;DHT22;6584;48.022;11.810;2022-08-19T01:42:52;19.40;99.90
13035;DHT22;6584;48.022;11.810;2022-08-19T01:45:20;19.40;99.90
13035;DHT22;6584;48.022;11.810;2022-08-19T01:47:47;19.30;99.90
13035;DHT22;6584;48.022;11.810;2022-08-19T01:50:12;19.30;99.90
13035;DHT22;6584;48.022;11.810;2022-08-19T01:52:40;19.40;99.90
13035;DHT22;6584;48.022;11.810;2022-08-19T01:55:09;19.30;99.90
13035;DHT22;6584;48.022;11.810;2022-08-19T01:57:35;19.40;99.90
13035;DHT22;6584;48.022;11.810;2022-08-19T02:00:03;19.40;99.90
13035;DHT22;6584;48.022;11.810;2022-08-19T02:02:30;19.30;99.90
13035;DHT22;6584;48.022;11.810;2022-08-19T02:04:56;19.30;99.90
13035;DHT22;6584;48.022;11.810;2022-08-19T02:07:22;19.30;99.90
13035;DHT22;6584;48.022;11.810;2022-08-19T02:09:48;19.30;99.90
13035;DHT22;6584;48.022;11.810;2022-08-19T02:12:14;19.30;99.90
13035;DHT22;6584;48.022;11.810;2022-08-19T02:14:41;19.30;99.90
13035;DHT22;6584;48.022;11.810;2022-08-19T02:17:07;19.30;99.90
13035;DHT22;6584;48.022;11.810;2022-08-19T02:19:33;19.30;99.90
13035;DHT22;6584;48.022;11.810;2022-08-19T02:21:59;19.30;99.90
13035;DHT22;6584;48.022;11.810;2022-08-19T02:24:26;19.20;99.90
13035;DHT22;6584;48.022;11.810;2022-08-19T02:26:53;19.30;99.90
13035;DHT22;6584;48.022;11.810;2022-08-19T02:29:19;19.20;99.90
13035;DHT22;6584;48.022;11.810;2022-08-19T02:31:46;19.20;99.90
13035;DHT22;6584;48.022;11.810;2022-08-19T02:34:11;19.20;99.90
13035;DHT22;6584;48.022;11.810;2022-08-19T02:36:37;19.20;99.90
13035;DHT22;6584;48.022;11.810;2022-08-19T02:39:04;19.20;99.90
13035;DHT22;6584;48.022;11.810;2022-08-19T02:41:32;19.10;99.90
13035;DHT22;6584;48.022;11.810;2022-08-19T02:43:59;19.10;99.90
13035;DHT22;6584;48.022;11.810;2022-08-19T02:46:28;19.10;99.90
13035;DHT22;6584;48.022;11.810;2022-08-19T02:48:56;19.00;99.90
13035;DHT22;6584;48.022;11.810;2022-08-19T02:51:29;19.10;99.90
13035;DHT22;6584;48.022;11.810;2022-08-19T02:53:55;19.00;99.90
13035;DHT22;6584;48.022;11.810;2022-08-19T02:56:21;18.90;99.90
13035;DHT22;6584;48.022;11.810;2022-08-19T02:58:47;19.10;99.90
13035;DHT22;6584;48.022;11.810;2022-08-19T03:03:50;19.00;99.90
13035;DHT22;6584;48.022;11.810;2022-08-19T03:06:17;19.00;99.90
13035;DHT22;6584;48.022;11.810;2022-08-19T03:08:44;18.90;99.90
13035;DHT22;6584;48.022;11.810;2022-08-19T03:11:24;18.90;99.90
13035;DHT22;6584;48.022;11.810;2022-08-19T03:13:50;18.90;99.90
13035;DHT22;6584;48.022;11.810;2022-08-19T03:16:17;18.90;99.90
13035;DHT22;6584;48.022;11.810;2022-08-19T03:18:43;19.00;99.90
13035;DHT22;6584;48.022;11.810;2022-08-19T03:21:09;18.90;99.90
13035;DHT22;6584;48.022;11.810;2022-08-19T03:23:39;18.90;99.90
13035;DHT22;6584;48.022;11.810;2022-08-19T03:26:05;18.90;99.90
13035;DHT22;6584;48.022;11.810;2022-08-19T03:28:31;18.90;99.90
13035;DHT22;6584;48.022;11.810;2022-08-19T03:31:09;19.00;99.90
13035;DHT22;6584;48.022;11.810;2022-08-19T03:33:35;19.00;99.90
13035;DHT22;6584;48.022;11.810;2022-08-19T03:36:17;18.90;99.90
13035;DHT22;6584;48.022;11.810;2022-08-19T03:38:45;18.90;99.90
13035;DHT22;6584;48.022;11.810;2022-08-19T03:41:16;19.00;99.90
13035;DHT22;6584;48.022;11.810;2022-08-19T03:43:43;19.00;99.90
13035;DHT22;6584;48.022;11.810;2022-08-19T03:46:17;19.00;99.90
13035;DHT22;6584;48.022;11.810;2022-08-19T03:48:46;18.90;99.90
13035;DHT22;6584;48.022;11.810;2022-08-19T03:51:20;18.90;99.90
13035;DHT22;6584;48.022;11.810;2022-08-19T03:53:47;18.90;99.90
13035;DHT22;6584;48.022;11.810;2022-08-19T03:56:13;18.90;99.90
13035;DHT22;6584;48.022;11.810;2022-08-19T03:58:40;18.90;99.90
13035;DHT22;6584;48.022;11.810;2022-08-19T04:01:17;18.80;99.90
13035;DHT22;6584;48.022;11.810;2022-08-19T04:03:43;18.90;99.90
13035;DHT22;6584;48.022;11.810;2022-08-19T04:06:12;18.90;99.90
13035;DHT22;6584;48.022;11.810;2022-08-19T04:08:39;18.90;99.90
13035;DHT22;6584;48.022;11.810;2022-08-19T04:11:10;18.90;99.90
13035;DHT22;6584;48.022;11.810;2022-08-19T04:13:36;18.90;99.90
13035;DHT22;6584;48.022;11.810;2022-08-19T04:16:02;18.90;99.90
13035;DHT22;6584;48.022;11.810;2022-08-19T04:18:28;18.90;99.90
13035;DHT22;6584;48.022;11.810;2022-08-19T04:20:55;19.00;99.90
13035;DHT22;6584;48.022;11.810;2022-08-19T04:23:22;18.90;99.90
13035;DHT22;6584;48.022;11.810;2022-08-19T04:25:48;19.00;99.90
13035;DHT22;6584;48.022;11.810;2022-08-19T04:28:14;19.00;99.90
13035;DHT22;6584;48.022;11.810;2022-08-19T04:30:46;19.00;99.90
13035;DHT22;6584;48.022;11.810;2022-08-19T04:33:13;19.00;99.90
13035;DHT22;6584;48.022;11.810;2022-08-19T04:35:48;19.00;99.90
13035;DHT22;6584;48.022;11.810;2022-08-19T04:38:16;19.10;99.90
13035;DHT22;6584;48.022;11.810;2022-08-19T04:40:47;19.00;99.90
13035;DHT22;6584;48.022;11.810;2022-08-19T04:43:32;19.00;99.90
13035;DHT22;6584;48.022;11.810;2022-08-19T04:45:58;19.00;99.90
13035;DHT22;6584;48.022;11.810;2022-08-19T04:48:24;19.00;99.90
13035;DHT22;6584;48.022;11.810;2022-08-19T04:50:54;19.00;99.90
13035;DHT22;6584;48.022;11.810;2022-08-19T04:53:31;19.00;99.90
13035;DHT22;6584;48.022;11.810;2022-08-19T04:55:57;19.00;99.90
13035;DHT22;6584;48.022;11.810;2022-08-19T04:58:24;19.00;99.90
13035;DHT22;6584;48.022;11.810;2022-08-19T05:00:50;19.00;99.90
13035;DHT22;6584;48.022;11.810;2022-08-19T05:03:16;19.00;99.90
13035;DHT22;6584;48.022;11.810;2022-08-19T05:05:43;18.90;99.90
13035;DHT22;6584;48.022;11.810;2022-08-19T05:08:10;18.90;99.90
13035;DHT22;6584;48.022;11.810;2022-08-19T05:10:37;19.00;99.90
13035;DHT22;6584;48.022;11.810;2022-08-19T05:13:03;19.00;99.90
13035;DHT22;6584;48.022;11.810;2022-08-19T05:15:29;18.90;99.90
13035;DHT22;6584;48.022;11.810;2022-08-19T05:17:55;18.90;99.90
13035;DHT22;6584;48.022;11.810;2022-08-19T05:20:39;18.90;99.90
13035;DHT22;6584;48.022;11.810;2022-08-19T05:23:23;18.90;99.90
13035;DHT22;6584;48.022;11.810;2022-08-19T05:25:50;18.90;99.90
13035;DHT22;6584;48.022;11.810;2022-08-19T05:28:17;18.90;99.90
13035;DHT22;6584;48.022;11.810;2022-08-19T05:30:44;18.90;99.90
13035;DHT22;6584;48.022;11.810;2022-08-19T05:33:10;18.90;99.90
13035;DHT22;6584;48.022;11.810;2022-08-19T05:35:38;18.90;99.90
13035;DHT22;6584;48.022;11.810;2022-08-19T05:38:07;18.90;99.90
13035;DHT22;6584;48.022;11.810;2022-08-19T05:40:37;18.90;99.90
13035;DHT22;6584;48.022;11.810;2022-08-19T05:43:05;19.00;99.90
13035;DHT22;6584;48.022;11.810;2022-08-19T05:45:31;18.90;99.90
13035;DHT22;6584;48.022;11.810;2022-08-19T05:47:56;18.90;99.90
13035;DHT22;6584;48.022;11.810;2022-08-19T05:50:24;18.90;99.90
13035;DHT22;6584;48.022;11.810;2022-08-19T05:52:52;18.80;99.90
13035;DHT22;6584;48.022;11.810;2022-08-19T05:55:17;18.80;99.90
13035;DHT22;6584;48.022;11.810;2022-08-19T05:57:45;18.80;99.90
13035;DHT22;6584;48.022;11.810;2022-08-19T06:00:11;18.80;99.90
13035;DHT22;6584;48.022;11.810;2022-08-19T06:02:38;18.80;99.90
13035;DHT22;6584;48.022;11.810;2022-08-19T06:05:04;18.80;99.90
13035;DHT22;6584;48.022;11.810;2022-08-19T06:07:32;18.80;99.90
13035;DHT22;6584;48.022;11.810;2022-08-19T06:09:58;18.80;99.90
13035;DHT22;6584;48.022;11.810;2022-08-19T06:12:23;18.80;99.90
13035;DHT22;6584;48.022;11.810;2022-08-19T06:14:54;18.80;99.90
13035;DHT22;6584;48.022;11.810;2022-08-19T06:17:20;18.80;99.90
13035;DHT22;6584;48.022;11.810;2022-08-19T06:19:47;18.80;99.90
13035;DHT22;6584;48.022;11.810;2022-08-19T06:22:15;18.80;99.90
13035;DHT22;6584;48.022;11.810;2022-08-19T06:24:41;18.80;99.90
13035;DHT22;6584;48.022;11.810;2022-08-19T06:27:07;18.80;99.90
13035;DHT22;6584;48.022;11.810;2022-08-19T06:29:32;18.80;99.90
13035;DHT22;6584;48.022;11.810;2022-08-19T06:32:00;18.90;99.90
13035;DHT22;6584;48.022;11.810;2022-08-19T06:34:28;18.90;99.90
13035;DHT22;6584;48.022;11.810;2022-08-19T06:36:56;19.00;99.90
13035;DHT22;6584;48.022;11.810;2022-08-19T06:39:25;19.10;99.90
13035;DHT22;6584;48.022;11.810;2022-08-19T06:41:54;19.20;99.90
13035;DHT22;6584;48.022;11.810;2022-08-19T06:44:23;19.30;99.90
13035;DHT22;6584;48.022;11.810;2022-08-19T06:46:50;19.30;99.90
13035;DHT22;6584;48.022;11.810;2022-08-19T06:49:17;19.40;99.90
13035;DHT22;6584;48.022;11.810;2022-08-19T06:51:44;19.50;99.90
13035;DHT22;6584;48.022;11.810;2022-08-19T06:54:10;19.50;99.90
13035;DHT22;6584;48.022;11.810;2022-08-19T06:56:36;19.70;99.90
13035;DHT22;6584;48.022;11.810;2022-08-19T06:59:22;19.70;99.90
13035;DHT22;6584;48.022;11.810;2022-08-19T07:01:53;19.80;99.90
13035;DHT22;6584;48.022;11.810;2022-08-19T07:04:23;19.80;99.90
13035;DHT22;6584;48.022;11.810;2022-08-19T07:06:50;19.80;99.90
13035;DHT22;6584;48.022;11.810;2022-08-19T07:09:18;19.90;99.90
13035;DHT22;6584;48.022;11.810;2022-08-19T07:11:48;20.00;99.90
13035;DHT22;6584;48.022;11.810;2022-08-19T07:14:18;20.10;99.90
13035;DHT22;6584;48.022;11.810;2022-08-19T07:16:45;20.00;99.90
13035;DHT22;6584;48.022;11.810;2022-08-19T07:19:12;20.10;99.90
13035;DHT22;6584;48.022;11.810;2022-08-19T07:21:37;20.20;99.90
13035;DHT22;6584;48.022;11.810;2022-08-19T07:24:04;20.10;99.90
13035;DHT22;6584;48.022;11.810;2022-08-19T07:26:32;20.00;99.90
13035;DHT22;6584;48.022;11.810;2022-08-19T07:28:58;19.90;99.90
13035;DHT22;6584;48.022;11.810;2022-08-19T07:31:26;19.90;99.90
13035;DHT22;6584;48.022;11.810;2022-08-19T07:33:53;19.90;99.90
13035;DHT22;6584;48.022;11.810;2022-08-19T07:36:24;20.10;99.90
13035;DHT22;6584;48.022;11.810;2022-08-19T07:38:51;20.10;99.90
13035;DHT22;6584;48.022;11.810;2022-08-19T07:41:21;20.10;99.90
13035;DHT22;6584;48.022;11.810;2022-08-19T07:43:48;20.20;99.90
13035;DHT22;6584;48.022;11.810;2022-08-19T07:46:14;20.20;99.90
13035;DHT22;6584;48.022;11.810;2022-08-19T07:48:44;20.00;99.90
13035;DHT22;6584;48.022;11.810;2022-08-19T07:51:15;20.10;99.90
13035;DHT22;6584;48.022;11.810;2022-08-19T07:53:41;19.90;99.90
13035;DHT22;6584;48.022;11.810;2022-08-19T07:56:10;19.90;99.90
13035;DHT22;6584;48.022;11.810;2022-08-19T07:58:40;19.90;99.90
13035;DHT22;6584;48.022;11.810;2022-08-19T08:01:08;19.90;99.90
13035;DHT22;6584;48.022;11.810;2022-08-19T08:03:36;19.80;99.90
13035;DHT22;6584;48.022;11.810;2022-08-19T08:06:21;19.80;99.90
13035;DHT22;6584;48.022;11.810;2022-08-19T08:09:05;19.80;99.90
13035;DHT22;6584;48.022;11.810;2022-08-19T08:11:41;19.80;99.90
13035;DHT22;6584;48.022;11.810;2022-08-19T08:14:08;19.80;99.90
13035;DHT22;6584;48.022;11.810;2022-08-19T08:16:36;19.80;99.90
13035;DHT22;6584;48.022;11.810;2022-08-19T08:19:06;19.80;99.90
13035;DHT22;6584;48.022;11.810;2022-08-19T08:21:33;19.80;99.90
13035;DHT22;6584;48.022;11.810;2022-08-19T08:23:59;19.80;99.90
13035;DHT22;6584;48.022;11.810;2022-08-19T08:26:25;19.80;99.90
13035;DHT22;6584;48.022;11.810;2022-08-19T08:28:52;19.70;99.90
13035;DHT22;6584;48.022;11.810;2022-08-19T08:31:18;19.70;99.90
13035;DHT22;6584;48.022;11.810;2022-08-19T08:33:44;19.70;99.90
13035;DHT22;6584;48.022;11.810;2022-08-19T08:36:11;19.60;99.90
13035;DHT22;6584;48.022;11.810;2022-08-19T08:38:40;19.60;99.90
13035;DHT22;6584;48.022;11.810;2022-08-19T08:41:18;19.60;99.90
13035;DHT22;6584;48.022;11.810;2022-08-19T08:43:48;19.70;99.90
13035;DHT22;6584;48.022;11.810;2022-08-19T08:48:56;19.50;99.90
13035;DHT22;6584;48.022;11.810;2022-08-19T08:51:44;19.60;99.90
13035;DHT22;6584;48.022;11.810;2022-08-19T08:54:14;19.50;99.90
13035;DHT22;6584;48.022;11.810;2022-08-19T08:56:43;19.50;99.90
13035;DHT22;6584;48.022;11.810;2022-08-19T08:59:29;19.50;99.90
13035;DHT22;6584;48.022;11.810;2022-08-19T09:01:58;19.60;99.90
13035;DHT22;6584;48.022;11.810;2022-08-19T09:04:24;19.60;99.90
13035;DHT22;6584;48.022;11.810;2022-08-19T09:10:17;19.80;99.90
13035;DHT22;6584;48.022;11.810;2022-08-19T09:15:47;20.10;99.90
13035;DHT22;6584;48.022;11.810;2022-08-19T09:18:15;20.30;99.90
13035;DHT22;6584;48.022;11.810;2022-08-19T09:20:42;20.60;99.90
13035;DHT22;6584;48.022;11.810;2022-08-19T09:23:07;20.80;99.90
13035;DHT22;6584;48.022;11.810;2022-08-19T09:25:33;20.80;99.90
13035;DHT22;6584;48.022;11.810;2022-08-19T09:28:00;20.70;99.90
13035;DHT22;6584;48.022;11.810;2022-08-19T09:30:32;20.80;99.90
13035;DHT22;6584;48.022;11.810;2022-08-19T09:32:58;20.80;99.90
13035;DHT22;6584;48.022;11.810;2022-08-19T09:35:26;21.10;99.90
13035;DHT22;6584;48.022;11.810;2022-08-19T09:37:52;21.20;99.90
13035;DHT22;6584;48.022;11.810;2022-08-19T09:40:18;21.30;99.90
13035;DHT22;6584;48.022;11.810;2022-08-19T09:42:45;21.30;99.90
13035;DHT22;6584;48.022;11.810;2022-08-19T09:45:15;21.40;99.90
13035;DHT22;6584;48.022;11.810;2022-08-19T09:47:42;21.50;99.90
13035;DHT22;6584;48.022;11.810;2022-08-19T09:50:10;21.40;99.90
13035;DHT22;6584;48.022;11.810;2022-08-19T09:52:36;21.40;99.90
13035;DHT22;6584;48.022;11.810;2022-08-19T09:55:07;21.60;99.90
13035;DHT22;6584;48.022;11.810;2022-08-19T09:57:33;21.70;99.90
13035;DHT22;6584;48.022;11.810;2022-08-19T09:59:59;21.70;99.90
13035;DHT22;6584;48.022;11.810;2022-08-19T10:02:24;21.90;99.90
13035;DHT22;6584;48.022;11.810;2022-08-19T10:04:51;22.00;99.90
13035;DHT22;6584;48.022;11.810;2022-08-19T10:07:35;22.00;99.90
13035;DHT22;6584;48.022;11.810;2022-08-19T10:10:02;22.10;99.90
13035;DHT22;6584;48.022;11.810;2022-08-19T10:12:27;22.20;99.90
13035;DHT22;6584;48.022;11.810;2022-08-19T10:14:53;22.20;99.90
13035;DHT22;6584;48.022;11.810;2022-08-19T10:17:20;22.30;99.90
13035;DHT22;6584;48.022;11.810;2022-08-19T10:19:46;22.40;99.90
13035;DHT22;6584;48.022;11.810;2022-08-19T10:22:11;22.50;99.90
13035;DHT22;6584;48.022;11.810;2022-08-19T10:24:39;22.60;99.90
13035;DHT22;6584;48.022;11.810;2022-08-19T10:27:06;22.60;99.90
13035;DHT22;6584;48.022;11.810;2022-08-19T10:29:32;22.60;99.90
13035;DHT22;6584;48.022;11.810;2022-08-19T10:32:01;22.40;99.90
13035;DHT22;6584;48.022;11.810;2022-08-19T10:34:27;22.30;99.90
13035;DHT22;6584;48.022;11.810;2022-08-19T10:36:53;22.30;99.90
13035;DHT22;6584;48.022;11.810;2022-08-19T10:39:19;22.30;99.90
13035;DHT22;6584;48.022;11.810;2022-08-19T10:41:44;22.40;99.90
13035;DHT22;6584;48.022;11.810;2022-08-19T10:44:12;22.50;99.90
13035;DHT22;6584;48.022;11.810;2022-08-19T10:46:41;22.50;99.90
13035;DHT22;6584;48.022;11.810;2022-08-19T10:49:09;22.50;99.90
13035;DHT22;6584;48.022;11.810;2022-08-19T10:51:37;22.70;99.90
13035;DHT22;6584;48.022;11.810;2022-08-19T10:54:21;22.80;99.90
13035;DHT22;6584;48.022;11.810;2022-08-19T10:56:46;23.00;99.90
13035;DHT22;6584;48.022;11.810;2022-08-19T10:59:23;23.20;99.90
13035;DHT22;6584;48.022;11.810;2022-08-19T11:01:50;23.20;99.90
13035;DHT22;6584;48.022;11.810;2022-08-19T11:04:17;23.30;99.90
13035;DHT22;6584;48.022;11.810;2022-08-19T11:06:47;23.30;99.90
13035;DHT22;6584;48.022;11.810;2022-08-19T11:09:15;23.30;99.90
13035;DHT22;6584;48.022;11.810;2022-08-19T11:11:42;23.30;99.90
13035;DHT22;6584;48.022;11.810;2022-08-19T11:14:10;23.30;99.90
13035;DHT22;6584;48.022;11.810;2022-08-19T11:16:37;23.20;99.90
13035;DHT22;6584;48.022;11.810;2022-08-19T11:19:05;23.10;99.90
13035;DHT22;6584;48.022;11.810;2022-08-19T11:21:36;23.10;99.90
13035;DHT22;6584;48.022;11.810;2022-08-19T11:24:15;22.90;99.90
13035;DHT22;6584;48.022;11.810;2022-08-19T11:26:41;22.80;99.90
13035;DHT22;6584;48.022;11.810;2022-08-19T11:29:09;22.80;99.90
13035;DHT22;6584;48.022;11.810;2022-08-19T11:31:41;22.90;99.90
13035;DHT22;6584;48.022;11.810;2022-08-19T11:34:09;23.10;99.90
13035;DHT22;6584;48.022;11.810;2022-08-19T11:36:39;23.10;99.90
13035;DHT22;6584;48.022;11.810;2022-08-19T11:39:06;23.20;99.90
13035;DHT22;6584;48.022;11.810;2022-08-19T11:41:32;23.20;99.90
13035;DHT22;6584;48.022;11.810;2022-08-19T11:43:57;23.10;99.90
13035;DHT22;6584;48.022;11.810;2022-08-19T11:46:25;23.10;99.90
13035;DHT22;6584;48.022;11.810;2022-08-19T11:48:51;23.00;99.90
13035;DHT22;6584;48.022;11.810;2022-08-19T11:51:19;23.00;99.90
13035;DHT22;6584;48.022;11.810;2022-08-19T11:53:46;23.00;99.90
13035;DHT22;6584;48.022;11.810;2022-08-19T11:56:14;23.10;99.90
13035;DHT22;6584;48.022;11.810;2022-08-19T11:58:40;23.10;99.90
13035;DHT22;6584;48.022;11.810;2022-08-19T12:01:11;23.10;99.90
13035;DHT22;6584;48.022;11.810;2022-08-19T12:03:38;23.10;99.90
13035;DHT22;6584;48.022;11.810;2022-08-19T12:06:09;23.00;99.90
13035;DHT22;6584;48.022;11.810;2022-08-19T12:08:35;23.00;99.90
13035;DHT22;6584;48.022;11.810;2022-08-19T12:11:01;23.20;99.90
13035;DHT22;6584;48.022;11.810;2022-08-19T12:13:28;23.30;99.90
13035;DHT22;6584;48.022;11.810;2022-08-19T12:15:54;23.30;99.90
13035;DHT22;6584;48.022;11.810;2022-08-19T12:18:19;23.40;99.90
13035;DHT22;6584;48.022;11.810;2022-08-19T12:20:45;23.40;99.90
13035;DHT22;6584;48.022;11.810;2022-08-19T12:23:13;23.40;99.90
13035;DHT22;6584;48.022;11.810;2022-08-19T12:25:44;23.50;99.90
13035;DHT22;6584;48.022;11.810;2022-08-19T12:28:22;23.50;99.90
13035;DHT22;6584;48.022;11.810;2022-08-19T12:30:49;23.40;99.90
13035;DHT22;6584;48.022;11.810;2022-08-19T12:33:17;23.60;99.90
13035;DHT22;6584;48.022;11.810;2022-08-19T12:35:44;23.80;99.90
13035;DHT22;6584;48.022;11.810;2022-08-19T12:38:12;24.10;99.90
13035;DHT22;6584;48.022;11.810;2022-08-19T12:40:37;23.90;99.90
13035;DHT22;6584;48.022;11.810;2022-08-19T12:43:05;23.90;99.90
13035;DHT22;6584;48.022;11.810;2022-08-19T12:45:31;24.20;99.90
13035;DHT22;6584;48.022;11.810;2022-08-19T12:47:56;24.20;99.90
13035;DHT22;6584;48.022;11.810;2022-08-19T12:50:22;23.80;99.90
13035;DHT22;6584;48.022;11.810;2022-08-19T12:52:48;23.70;99.90
13035;DHT22;6584;48.022;11.810;2022-08-19T12:55:14;23.10;99.90
13035;DHT22;6584;48.022;11.810;2022-08-19T12:57:40;22.90;99.90
13035;DHT22;6584;48.022;11.810;2022-08-19T13:00:17;22.80;99.90
13035;DHT22;6584;48.022;11.810;2022-08-19T13:02:45;22.70;99.90
13035;DHT22;6584;48.022;11.810;2022-08-19T13:05:15;22.80;99.90
13035;DHT22;6584;48.022;11.810;2022-08-19T13:07:42;22.80;99.90
13035;DHT22;6584;48.022;11.810;2022-08-19T13:10:11;22.80;99.90
13035;DHT22;6584;48.022;11.810;2022-08-19T13:12:37;22.60;99.90
13035;DHT22;6584;48.022;11.810;2022-08-19T13:15:03;22.70;99.90
13035;DHT22;6584;48.022;11.810;2022-08-19T13:17:29;22.80;99.90
13035;DHT22;6584;48.022;11.810;2022-08-19T13:19:54;22.50;99.90
13035;DHT22;6584;48.022;11.810;2022-08-19T13:22:20;22.60;99.90
13035;DHT22;6584;48.022;11.810;2022-08-19T13:24:45;22.50;99.90
13035;DHT22;6584;48.022;11.810;2022-08-19T13:27:11;22.40;99.90
13035;DHT22;6584;48.022;11.810;2022-08-19T13:29:37;22.60;99.90
13035;DHT22;6584;48.022;11.810;2022-08-19T13:32:23;22.70;99.90
13035;DHT22;6584;48.022;11.810;2022-08-19T13:35:07;22.90;99.90
13035;DHT22;6584;48.022;11.810;2022-08-19T13:37:33;23.00;99.90
13035;DHT22;6584;48.022;11.810;2022-08-19T13:40:16;23.20;99.90
13035;DHT22;6584;48.022;11.810;2022-08-19T13:42:48;23.20;99.90
13035;DHT22;6584;48.022;11.810;2022-08-19T13:45:16;23.00;99.90
13035;DHT22;6584;48.022;11.810;2022-08-19T13:47:49;23.30;99.90
13035;DHT22;6584;48.022;11.810;2022-08-19T13:50:18;23.30;99.90
13035;DHT22;6584;48.022;11.810;2022-08-19T13:52:44;23.30;99.90
13035;DHT22;6584;48.022;11.810;2022-08-19T13:55:10;23.40;99.90
13035;DHT22;6584;48.022;11.810;2022-08-19T13:57:36;23.50;99.90
13035;DHT22;6584;48.022;11.810;2022-08-19T14:00:12;23.50;99.90
13035;DHT22;6584;48.022;11.810;2022-08-19T14:02:39;23.60;99.90
13035;DHT22;6584;48.022;11.810;2022-08-19T14:05:07;23.60;99.90
13035;DHT22;6584;48.022;11.810;2022-08-19T14:07:33;23.50;99.90
13035;DHT22;6584;48.022;11.810;2022-08-19T14:09:59;23.50;99.90
13035;DHT22;6584;48.022;11.810;2022-08-19T14:12:24;23.30;99.90
13035;DHT22;6584;48.022;11.810;2022-08-19T14:14:50;23.30;99.90
13035;DHT22;6584;48.022;11.810;2022-08-19T14:17:16;23.40;99.90
13035;DHT22;6584;48.022;11.810;2022-08-19T14:19:42;23.40;99.90
13035;DHT22;6584;48.022;11.810;2022-08-19T14:22:08;23.50;99.90
13035;DHT22;6584;48.022;11.810;2022-08-19T14:24:37;23.60;99.90
13035;DHT22;6584;48.022;11.810;2022-08-19T14:27:04;23.50;99.90
13035;DHT22;6584;48.022;11.810;2022-08-19T14:29:30;23.50;99.90
13035;DHT22;6584;48.022;11.810;2022-08-19T14:31:55;23.50;99.90
13035;DHT22;6584;48.022;11.810;2022-08-19T14:34:24;23.60;99.90
13035;DHT22;6584;48.022;11.810;2022-08-19T14:36:50;23.60;99.90
13035;DHT22;6584;48.022;11.810;2022-08-19T14:39:15;23.90;99.90
13035;DHT22;6584;48.022;11.810;2022-08-19T14:41:41;24.00;99.90
13035;DHT22;6584;48.022;11.810;2022-08-19T14:44:07;24.10;99.90
13035;DHT22;6584;48.022;11.810;2022-08-19T14:46:37;24.10;99.90
13035;DHT22;6584;48.022;11.810;2022-08-19T14:49:03;24.20;99.90
13035;DHT22;6584;48.022;11.810;2022-08-19T14:51:29;24.20;99.90
13035;DHT22;6584;48.022;11.810;2022-08-19T14:53:55;24.40;99.90
13035;DHT22;6584;48.022;11.810;2022-08-19T14:56:27;24.40;99.90
13035;DHT22;6584;48.022;11.810;2022-08-19T14:58:54;24.50;99.90
13035;DHT22;6584;48.022;11.810;2022-08-19T15:01:21;24.60;99.90
13035;DHT22;6584;48.022;11.810;2022-08-19T15:03:48;24.60;99.90
13035;DHT22;6584;48.022;11.810;2022-08-19T15:06:14;24.60;99.90
13035;DHT22;6584;48.022;11.810;2022-08-19T15:08:41;24.60;99.90
13035;DHT22;6584;48.022;11.810;2022-08-19T15:11:10;24.50;99.90
13035;DHT22;6584;48.022;11.810;2022-08-19T15:13:36;24.40;99.90
13035;DHT22;6584;48.022;11.810;2022-08-19T15:16:02;24.30;99.90
13035;DHT22;6584;48.022;11.810;2022-08-19T15:18:28;24.20;99.90
13035;DHT22;6584;48.022;11.810;2022-08-19T15:20:53;24.00;99.90
13035;DHT22;6584;48.022;11.810;2022-08-19T15:23:20;23.90;99.90
13035;DHT22;6584;48.022;11.810;2022-08-19T15:25:47;23.90;99.90
13035;DHT22;6584;48.022;11.810;2022-08-19T15:28:12;23.70;99.90
13035;DHT22;6584;48.022;11.810;2022-08-19T15:30:39;23.60;99.90
13035;DHT22;6584;48.022;11.810;2022-08-19T15:33:06;23.60;99.90
13035;DHT22;6584;48.022;11.810;2022-08-19T15:35:32;23.70;99.90
13035;DHT22;6584;48.022;11.810;2022-08-19T15:37:57;23.70;99.90
13035;DHT22;6584;48.022;11.810;2022-08-19T15:40:25;23.50;99.90
13035;DHT22;6584;48.022;11.810;2022-08-19T15:42:52;23.50;99.90
13035;DHT22;6584;48.022;11.810;2022-08-19T15:45:19;23.70;99.90
13035;DHT22;6584;48.022;11.810;2022-08-19T15:47:46;23.70;99.90